Latest Coastal Weather Observations for Cape Nelson

IDS60701

Issued at 4:55 am CST Thursday 31 July 2014 (issued every 10 minutes, with the page automatically refreshed every 10 minutes)

About coastal observations | Map of coastal stations | Coastal observations for SA | Marine services | Other Formats
Station Details ID: 090184 Name: CAPE NELSON LIGHTHOUSE Lat: -38.43 Lon: 141.54 Height: 45.4 m
Data from the previous 72 hours. | See also: Recent months at Cape Nelson
Date/Time
CST
Temp

°C
Wind Pressure Rain
since 9am
mm
Weather Cloud Vis
km
Sea
Height
m
Swell
Dir
 
Speed
knots
Gust
knots
hPa Trend Height
m
Period
s
Dir
31/04:30am 13.3 NNW 23 37 996.5 - 0.8 - - - - - - -
31/04:00am 13.4 NNW 26 43 997.1 - 0.8 - - - - - - -
31/03:30am 13.3 NNW 25 37 997.8 - 0.8 - - - - - - -
31/03:00am 13.2 NW 26 37 998.6 - 0.8 - - - - - - -
31/02:30am 13.3 NW 28 39 999.2 - 0.8 - - - - - - -
31/02:00am 13.1 NW 27 37 999.7 - 0.8 - - - - - - -
31/01:30am 13.2 NW 23 38 1000.1 - 0.8 - - - - - - -
31/01:00am 12.9 NW 24 41 1000.8 - 0.8 - - - - - - -
31/12:30am 14.0 NW 24 36 1001.3 - 0.6 - - - - - - -
31/12:00am 14.0 NNW 25 37 1001.6 - 0.6 - - - - - - -
 
Date/Time
CST
Temp

°C
Wind Pressure Rain
since 9am
mm
Weather Cloud Vis
km
Sea
Height
m
Swell
Dir
 
Speed
knots
Gust
knots
hPa Trend Height
m
Period
s
Dir
30/11:30pm 13.8 NNW 23 34 1002.4 - 0.6 - - - - - - -
30/11:00pm 14.0 NNW 25 39 1002.9 - 0.6 - - - - - - -
30/10:30pm 13.8 NW 23 35 1003.5 - 0.6 - - - - - - -
30/10:00pm 13.8 NW 25 36 1003.9 - 0.6 - - - - - - -
30/09:31pm 13.8 NW 25 35 1004.4 - 0.6 - - - - - - -
30/09:30pm 13.8 NW 25 34 1004.3 - 0.6 - - - - - - -
30/09:00pm 13.7 NW 26 39 1004.3 - 0.6 - - - - - - -
30/08:30pm 13.9 NW 26 37 1004.8 - 0.6 - - - - - - -
30/08:00pm 13.9 NW 26 37 1004.9 - 0.6 - - - - - - -
30/07:30pm 14.2 NNW 27 39 1004.8 - 0.6 - - - - - - -
30/07:00pm 14.0 NW 24 35 1005.5 - 0.6 - - - - - - -
30/06:36pm 13.8 NW 23 33 1005.6 - 0.6 - - - - - - -
30/06:30pm 13.8 NW 24 32 1005.6 - 0.6 - - - - - - -
30/06:02pm 13.8 NW 25 35 1006.0 - 0.6 - - - - - - -
30/06:00pm 13.8 NW 25 34 1006.1 - 0.6 - - - - - - -
30/05:36pm 14.0 NW 25 35 1006.0 - 0.6 - - - - - - -
30/05:30pm 13.9 NW 24 33 1006.0 - 0.6 - - - - - - -
30/05:00pm 14.0 NW 24 36 1006.0 - 0.6 - - - - - - -
30/04:30pm 13.8 NW 23 35 1006.2 - 0.6 - - - - - - -
30/04:02pm 14.0 WNW 22 37 1006.3 - 0.6 - - - - - - -
30/04:00pm 14.2 WNW 22 31 1006.4 - 0.4 - - - - - - -
30/03:30pm 14.4 NW 25 37 1006.4 - 0.2 - - - - - - -
30/03:00pm 15.3 NW 23 36 1006.4 - 0.2 - - - - - - -
30/02:31pm 15.2 NW 23 33 1006.5 - 0.2 - - - - - - -
30/02:30pm 15.2 NW 23 31 1006.5 - 0.2 - - - - - - -
30/02:00pm 14.9 NW 25 38 1006.6 - 0.2 - - - - - - -
30/01:30pm 15.0 WNW 25 36 1006.9 - 0.2 - - - - - - -
30/01:00pm 15.3 WNW 23 35 1007.2 - 0.2 - - - - - - -
30/12:30pm 15.5 WNW 25 35 1007.6 - 0.2 - - - - - - -
30/12:00pm 15.5 WNW 24 36 1008.1 - 0.2 - - - - - - -
30/11:30am 14.7 WNW 24 35 1008.4 - 0.2 - - - - - - -
30/11:00am 13.9 WNW 25 35 1008.9 - 0.2 - - - - - - -
30/10:33am 14.6 NW 21 32 1009.0 - 0.2 - - - - - - -
30/10:30am 14.8 NW 21 29 1009.1 - 0.2 - - - - - - -
30/10:09am 14.2 NW 21 31 1009.2 - 0.2 - - - - - - -
30/10:00am 14.0 NW 22 30 1009.3 - 0.2 - - - - - - -
30/09:47am 14.1 NW 20 30 1009.3 - 0.2 - - - - - - -
30/09:30am 13.5 NW 21 29 1009.4 - 0.2 - - - - - - -
30/09:00am 13.3 NW 21 30 1009.3 - 0.0 - - - - - - -
30/08:52am 13.4 NW 20 30 1009.3 - 0.0 - - - - - - -
30/08:30am 13.4 NW 21 30 1009.3 - 3.2 Recent precip. - - - - - -
30/08:00am 13.3 NW 19 29 1009.4 - 3.0 - - - - - - -
30/07:30am 12.7 NW 20 31 1009.3 - 3.0 - - - - - - -
30/07:29am 12.7 NW 20 31 1009.2 - 3.0 - - - - - - -
30/07:00am 12.7 NW 18 25 1009.3 - 3.0 - - - - - - -
30/06:43am 12.7 NW 17 27 1009.1 - 3.0 - - - - - - -
30/06:30am 12.6 NW 20 28 1009.1 - 3.0 - - - - - - -
30/06:00am 12.7 NNW 19 27 1008.8 - 3.0 - - - - - - -
30/05:38am 12.6 NW 19 29 1008.8 - 3.0 - - - - - - -
30/05:30am 12.5 NW 19 27 1008.7 - 3.0 - - - - - - -
30/05:04am 12.6 NW 19 29 1008.7 - 3.0 - - - - - - -
30/05:00am 12.6 NW 20 29 1008.7 - 3.0 - - - - - - -
30/04:47am 12.6 NNW 18 29 1008.8 - 3.0 - - - - - - -
30/04:30am 13.0 NNW 15 19 1009.0 - 3.0 - - - - - - -
30/04:00am 13.7 WNW 19 28 1009.2 - 3.0 - - - - - - -
30/03:58am 13.7 WNW 20 30 1009.2 - 3.0 - - - - - - -
30/03:30am 13.7 WNW 19 26 1009.3 - 3.0 - - - - - - -
30/03:14am 13.6 WNW 20 30 1009.3 - 3.0 - - - - - - -
30/03:00am 13.5 WNW 21 29 1009.4 - 3.0 - - - - - - -
30/02:30am 13.7 WNW 21 28 1009.4 - 3.0 - - - - - - -
30/02:05am 13.6 W 21 35 1009.6 - 3.0 - - - - - - -
30/02:00am 13.6 W 21 30 1009.6 - 3.0 - - - - - - -
30/01:52am 13.7 W 20 30 1009.7 - 3.0 - - - - - - -
30/01:30am 13.7 W 25 33 1009.7 - 3.0 - - - - - - -
30/01:00am 13.7 W 27 36 1009.7 - 3.0 - - - - - - -
30/12:34am 14.0 W 28 38 1009.7 - 3.0 - - - - - - -
30/12:30am 13.9 W 29 38 1009.7 - 3.0 - - - - - - -
30/12:00am 13.7 W 25 36 1009.4 - 3.0 - - - - - - -
 
Date/Time
CST
Temp

°C
Wind Pressure Rain
since 9am
mm
Weather Cloud Vis
km
Sea
Height
m
Swell
Dir
 
Speed
knots
Gust
knots
hPa Trend Height
m
Period
s
Dir
29/11:31pm 14.0 W 21 31 1009.3 - 3.0 - - - - - - -
29/11:30pm 13.9 W 22 30 1009.3 - 3.0 - - - - - - -
29/11:00pm 13.8 W 19 32 1009.2 - 3.0 - - - - - - -
29/10:30pm 14.0 W 22 35 1009.1 - 3.0 - - - - - - -
29/10:11pm 14.1 W 27 37 1009.1 - 3.0 - - - - - - -
29/10:01pm 14.2 W 17 27 1009.1 - 3.0 - - - - - - -
29/10:00pm 14.3 W 17 25 1009.1 - 3.0 - - - - - - -
29/09:37pm 14.3 W 23 33 1009.0 - 3.0 - - - - - - -
29/09:30pm 14.2 W 26 33 1008.8 - 3.0 - - - - - - -
29/09:00pm 13.7 W 24 34 1008.4 - 3.0 - - - - - - -
29/08:30pm 13.0 W 29 49 1008.1 - 3.0 Rain - - - - - -
29/08:21pm 13.3 WNW 28 49 1007.8 - 2.8 - - - - - - -
29/08:09pm 14.2 WNW 22 35 1008.0 - 2.8 - - - - - - -
29/08:00pm 14.2 WNW 21 29 1007.9 - 2.8 - - - - - - -
29/07:30pm 13.9 WNW 23 33 1007.6 - 2.8 - - - - - - -
29/07:17pm 14.0 WNW 23 33 1007.5 - 2.8 - - - - - - -
29/07:00pm 14.0 WNW 23 31 1007.6 - 2.8 - - - - - - -
29/06:30pm 14.1 WNW 23 31 1007.2 - 2.8 - - - - - - -
29/06:03pm 13.9 WNW 24 34 1006.9 - 2.8 - - - - - - -
29/06:00pm 14.0 WNW 23 32 1006.9 - 2.8 - - - - - - -
29/05:42pm 13.6 WNW 23 33 1006.9 - 2.8 - - - - - - -
29/05:30pm 13.4 WNW 25 34 1006.6 - 2.8 Recent precip. - - - - - -
29/05:00pm 13.2 WNW 25 35 1006.1 - 2.8 - - - - - - -
29/04:44pm 13.4 W 28 42 1005.9 - 2.2 - - - - - - -
29/04:30pm 14.3 NW 27 40 1005.2 - 0.4 - - - - - - -
29/04:00pm 14.2 WNW 27 38 1005.0 - 0.2 - - - - - - -
29/03:30pm 14.8 WNW 25 35 1004.8 - 0.2 - - - - - - -
29/03:00pm 14.6 WNW 27 41 1004.7 - 0.2 - - - - - - -
29/02:30pm 14.9 NW 27 44 1004.2 - 0.2 - - - - - - -
29/02:00pm 15.1 WNW 27 38 1004.0 - 0.2 - - - - - - -
29/01:30pm 14.6 WNW 27 40 1003.9 - 0.2 - - - - - - -
29/01:00pm 15.0 WNW 28 42 1003.7 - 0.0 - - - - - - -
29/12:30pm 14.9 NW 28 40 1003.8 - 0.0 - - - - - - -
29/12:00pm 14.9 NW 29 41 1004.3 - 0.0 - - - - - - -
29/11:30am 14.9 NW 28 40 1004.8 - 0.0 - - - - - - -
29/11:00am 14.8 NW 26 44 1004.8 - 0.0 - - - - - - -
29/10:30am 14.8 NW 28 43 1004.8 - 0.0 - - - - - - -
29/10:00am 14.2 NW 29 39 1004.8 - 0.0 - - - - - - -
29/09:30am 14.1 NW 26 39 1004.8 - 0.0 - - - - - - -
29/09:00am 13.9 NW 25 38 1004.3 - 0.0 - - - - - - -
29/08:30am 13.6 NW 27 40 1004.2 - 20.4 Recent precip. - - - - - -
29/08:24am 13.5 NW 24 37 1004.3 - 20.4 - - - - - - -
29/08:05am 13.3 NW 17 27 1004.3 - 20.2 - - - - - - -
29/08:00am 13.2 NW 20 27 1004.5 - 20.0 - - - - - - -
29/07:32am 13.4 NW 24 36 1004.3 - 19.2 - - - - - - -
29/07:30am 13.4 NW 23 31 1004.4 - 19.2 - - - - - - -
29/07:01am 13.3 NW 23 36 1004.7 - 19.2 - - - - - - -
29/07:00am 13.3 NW 23 32 1004.6 - 19.2 - - - - - - -
29/06:33am 13.3 NW 21 32 1004.8 - 17.4 - - - - - - -
29/06:30am 13.4 NW 21 28 1004.9 - 17.2 - - - - - - -
29/06:00am 13.0 NW 26 36 1004.2 - 15.0 - - - - - - -
29/05:30am 12.9 NW 24 36 1004.4 - 15.0 Recent precip. - - - - - -
29/05:00am 12.8 NW 24 36 1004.0 - 13.2 - - - - - - -
29/04:30am 12.8 NW 25 39 1004.2 - 13.0 - - - - - - -
29/04:05am 12.5 NW 25 35 1003.9 - 11.6 - - - - - - -
29/04:00am 12.5 NW 24 33 1004.3 - 11.6 - - - - - - -
29/03:33am 12.7 NW 25 35 1004.2 - 11.4 - - - - - - -
29/03:30am 12.8 NW 26 35 1004.2 - 11.2 - - - - - - -
29/03:00am 13.2 NW 25 37 1004.2 - 10.8 - - - - - - -
29/02:30am 13.0 NW 24 35 1004.7 - 10.8 - - - - - - -
29/02:00am 13.1 NW 25 37 1005.0 - 10.8 - - - - - - -
29/01:30am 12.9 NW 25 37 1005.1 - 10.8 - - - - - - -
29/01:00am 12.9 NW 26 39 1005.6 - 10.8 - - - - - - -
29/12:30am 12.9 NW 24 37 1006.1 - 10.8 - - - - - - -
29/12:00am 12.6 NNW 23 33 1006.5 - 10.8 - - - - - - -
 
Date/Time
CST
Temp

°C
Wind Pressure Rain
since 9am
mm
Weather Cloud Vis
km
Sea
Height
m
Swell
Dir
 
Speed
knots
Gust
knots
hPa Trend Height
m
Period
s
Dir
28/11:30pm 12.4 NW 22 35 1006.9 - 10.8 - - - - - - -
28/11:00pm 12.3 NNW 21 32 1007.5 - 10.8 - - - - - - -
28/10:41pm 12.1 NNW 21 32 1007.7 - 10.8 - - - - - - -
28/10:30pm 12.1 NNW 22 31 1007.8 - 10.8 - - - - - - -
28/10:04pm 12.1 NNW 20 30 1008.3 - 10.8 - - - - - - -
28/10:00pm 12.1 NNW 20 28 1008.4 - 10.8 - - - - - - -
28/09:36pm 12.0 NNW 19 32 1008.7 - 10.8 - - - - - - -
28/09:30pm 12.1 NNW 20 28 1008.8 - 10.6 - - - - - - -
28/09:00pm 12.2 NNW 16 27 1008.9 - 5.6 - - - - - - -
28/08:55pm 12.2 NNW 19 29 1009.1 - 4.2 - - - - - - -
28/08:30pm 12.4 NNW 19 27 1009.1 - 1.2 Recent precip. - - - - - -
28/08:09pm 12.5 NNW 19 29 1009.0 - 0.8 - - - - - - -
28/08:00pm 12.7 NNW 17 26 1009.2 - 0.4 - - - - - - -
28/07:54pm 12.8 NNW 19 29 1009.2 - 0.4 - - - - - - -
28/07:30pm 13.1 NNW 19 28 1008.9 - 0.2 - - - - - - -
28/07:00pm 13.6 NNW 20 30 1008.8 - 0.2 - - - - - - -
28/06:31pm 13.8 NNW 18 28 1009.1 - 0.2 - - - - - - -
28/06:30pm 13.9 NNW 19 28 1009.1 - 0.2 - - - - - - -
28/06:00pm 13.7 NW 18 23 1009.2 - 0.2 - - - - - - -
28/05:30pm 14.2 NW 20 27 1009.5 - 0.2 - - - - - - -
28/05:05pm 14.3 NW 19 29 1009.3 - 0.2 - - - - - - -
28/05:00pm 14.3 NW 20 29 1009.3 - 0.2 - - - - - - -
28/04:35pm 14.7 NW 20 30 1009.1 - 0.2 - - - - - - -
28/04:30pm 14.8 NW 21 28 1009.1 - 0.2 - - - - - - -
28/04:13pm 14.9 NW 22 33 1009.1 - 0.2 - - - - - - -
28/04:00pm 14.9 NW 21 30 1009.4 - 0.2 - - - - - - -
28/03:48pm 15.2 NW 21 31 1009.4 - 0.2 - - - - - - -
28/03:30pm 15.1 NW 21 30 1009.3 - 0.2 - - - - - - -
28/03:07pm 15.8 NW 23 33 1009.4 - 0.2 - - - - - - -
28/03:00pm 15.9 NW 23 31 1009.5 - 0.2 - - - - - - -
28/02:31pm 16.2 NW 22 33 1009.4 - 0.2 - - - - - - -
28/02:30pm 16.2 NW 22 31 1009.5 - 0.2 Recent precip. - - - - - -
28/02:00pm 16.5 NW 22 33 1009.7 - 0.2 - - - - - - -
28/01:56pm 16.5 NW 22 32 1009.8 - 0.2 - - - - - - -
28/01:30pm 16.6 NW 20 29 1010.2 - 0.0 - - - - - - -
28/01:00pm 15.7 NW 20 29 1010.5 - 0.0 - - - - - - -
28/12:30pm 15.7 NW 20 27 1010.9 - 0.0 - - - - - - -
28/12:00pm 16.1 NW 21 31 1011.2 - 0.0 - - - - - - -
28/11:53am 16.2 NW 20 30 1011.4 - 0.0 - - - - - - -
28/11:30am 15.9 NW 20 28 1011.6 - 0.0 - - - - - - -
28/11:11am 15.5 NW 19 29 1011.9 - 0.0 - - - - - - -
28/11:00am 15.2 NW 20 29 1012.1 - 0.0 - - - - - - -
28/10:34am 14.8 NW 19 29 1012.4 - 0.0 - - - - - - -
28/10:30am 14.9 NW 19 28 1012.4 - 0.0 - - - - - - -
28/10:29am 14.9 NW 19 29 1012.4 - 0.0 - - - - - - -
28/10:00am 14.4 NW 19 26 1012.5 - 0.0 - - - - - - -
28/09:30am 13.7 NW 19 27 1012.7 - 0.0 - - - - - - -
28/09:27am 13.7 NW 18 27 1012.7 - 0.0 - - - - - - -
28/09:00am 12.8 NNW 11 16 1012.7 - 0.0 - - - - - - -
28/08:30am 12.0 NNW 11 15 1012.8 - 0.0 - - - - - - -
28/08:00am 11.4 N 11 15 1012.7 - 0.0 - - - - - - -
28/07:30am 11.0 NNW 11 15 1012.8 - 0.0 - - - - - - -
28/07:00am 11.5 NNW 13 19 1012.7 - 0.0 - - - - - - -
28/06:30am 11.7 NNW 13 20 1012.8 - 0.0 - - - - - - -
28/06:00am 12.0 NW 17 22 1012.8 - 0.0 - - - - - - -
28/05:30am 12.1 NNW 16 23 1012.7 - 0.0 - - - - - - -
28/05:00am 12.2 NNW 17 25 1012.8 - 0.0 - - - - - - -
28/04:30am 12.2 NNW 15 21 1012.8 - 0.0 - - - - - - -

Other Formats:

Comma delimited format used in spreadsheet applications
http://www.bom.gov.au/fwo/IDS60701/IDS60701.94826.axf

JavaScript Object Notation format (JSON) in row-major order
http://www.bom.gov.au/fwo/IDS60701/IDS60701.94826.json